sensor_id;sensor_type;location;lat;lon;timestamp;temperature;humidity
52849;DHT22;38714;53.180;5.812;2022-09-29T00:01:49;7.80;99.90
52849;DHT22;38714;53.180;5.812;2022-09-29T00:04:15;7.80;99.90
52849;DHT22;38714;53.180;5.812;2022-09-29T00:06:40;7.80;99.90
52849;DHT22;38714;53.180;5.812;2022-09-29T00:09:06;7.70;99.90
52849;DHT22;38714;53.180;5.812;2022-09-29T00:11:31;7.70;99.90
52849;DHT22;38714;53.180;5.812;2022-09-29T00:13:56;7.70;99.90
52849;DHT22;38714;53.180;5.812;2022-09-29T00:16:22;7.70;99.90
52849;DHT22;38714;53.180;5.812;2022-09-29T00:18:48;7.60;99.90
52849;DHT22;38714;53.180;5.812;2022-09-29T00:21:15;7.60;99.90
52849;DHT22;38714;53.180;5.812;2022-09-29T00:23:41;7.70;99.90
52849;DHT22;38714;53.180;5.812;2022-09-29T00:26:07;7.60;99.90
52849;DHT22;38714;53.180;5.812;2022-09-29T00:28:34;7.60;99.90
52849;DHT22;38714;53.180;5.812;2022-09-29T00:31:00;7.60;99.90
52849;DHT22;38714;53.180;5.812;2022-09-29T00:33:29;7.60;99.90
52849;DHT22;38714;53.180;5.812;2022-09-29T00:35:59;7.60;99.90
52849;DHT22;38714;53.180;5.812;2022-09-29T00:38:26;7.60;99.90
52849;DHT22;38714;53.180;5.812;2022-09-29T00:40:51;7.60;99.90
52849;DHT22;38714;53.180;5.812;2022-09-29T00:43:19;7.60;99.90
52849;DHT22;38714;53.180;5.812;2022-09-29T00:45:45;7.50;99.90
52849;DHT22;38714;53.180;5.812;2022-09-29T00:48:14;7.50;99.90
52849;DHT22;38714;53.180;5.812;2022-09-29T00:50:46;7.50;99.90
52849;DHT22;38714;53.180;5.812;2022-09-29T00:53:13;7.40;99.90
52849;DHT22;38714;53.180;5.812;2022-09-29T00:55:49;7.40;99.90
52849;DHT22;38714;53.180;5.812;2022-09-29T00:58:18;7.40;99.90
52849;DHT22;38714;53.180;5.812;2022-09-29T01:00:47;7.40;99.90
52849;DHT22;38714;53.180;5.812;2022-09-29T01:03:13;7.40;99.90
52849;DHT22;38714;53.180;5.812;2022-09-29T01:05:44;7.40;99.90
52849;DHT22;38714;53.180;5.812;2022-09-29T01:10:57;7.40;99.90
52849;DHT22;38714;53.180;5.812;2022-09-29T01:13:24;7.30;99.90
52849;DHT22;38714;53.180;5.812;2022-09-29T01:15:50;7.30;99.90
52849;DHT22;38714;53.180;5.812;2022-09-29T01:18:15;7.40;99.90
52849;DHT22;38714;53.180;5.812;2022-09-29T01:26:02;7.40;99.90
52849;DHT22;38714;53.180;5.812;2022-09-29T01:36:20;7.20;99.90
52849;DHT22;38714;53.180;5.812;2022-09-29T01:39:02;7.20;99.90
52849;DHT22;38714;53.180;5.812;2022-09-29T01:46:35;7.20;99.90
52849;DHT22;38714;53.180;5.812;2022-09-29T01:49:02;7.10;99.90
52849;DHT22;38714;53.180;5.812;2022-09-29T01:51:29;7.10;99.90
52849;DHT22;38714;53.180;5.812;2022-09-29T01:53:57;7.10;99.90
52849;DHT22;38714;53.180;5.812;2022-09-29T01:56:26;7.10;99.90
52849;DHT22;38714;53.180;5.812;2022-09-29T01:58:54;7.10;99.90
52849;DHT22;38714;53.180;5.812;2022-09-29T02:01:22;7.10;99.90
52849;DHT22;38714;53.180;5.812;2022-09-29T02:04:02;7.10;99.90
52849;DHT22;38714;53.180;5.812;2022-09-29T02:06:30;7.10;99.90
52849;DHT22;38714;53.180;5.812;2022-09-29T02:09:01;7.10;99.90
52849;DHT22;38714;53.180;5.812;2022-09-29T02:11:27;7.10;99.90
52849;DHT22;38714;53.180;5.812;2022-09-29T02:14:00;7.10;99.90
52849;DHT22;38714;53.180;5.812;2022-09-29T02:16:29;7.00;99.90
52849;DHT22;38714;53.180;5.812;2022-09-29T02:19:02;7.00;99.90
52849;DHT22;38714;53.180;5.812;2022-09-29T02:21:30;7.00;99.90
52849;DHT22;38714;53.180;5.812;2022-09-29T02:23:56;7.00;99.90
52849;DHT22;38714;53.180;5.812;2022-09-29T02:26:22;7.00;99.90
52849;DHT22;38714;53.180;5.812;2022-09-29T02:28:48;7.00;99.90
52849;DHT22;38714;53.180;5.812;2022-09-29T02:31:15;7.00;99.90
52849;DHT22;38714;53.180;5.812;2022-09-29T02:33:41;6.90;99.90
52849;DHT22;38714;53.180;5.812;2022-09-29T02:38:52;6.90;99.90
52849;DHT22;38714;53.180;5.812;2022-09-29T02:41:28;6.90;99.90
52849;DHT22;38714;53.180;5.812;2022-09-29T02:51:54;6.90;99.90
52849;DHT22;38714;53.180;5.812;2022-09-29T02:54:35;6.90;99.90
52849;DHT22;38714;53.180;5.812;2022-09-29T02:57:11;6.90;99.90
52849;DHT22;38714;53.180;5.812;2022-09-29T02:59:45;6.90;99.90
52849;DHT22;38714;53.180;5.812;2022-09-29T03:02:14;6.90;99.90
52849;DHT22;38714;53.180;5.812;2022-09-29T03:04:40;6.80;99.90
52849;DHT22;38714;53.180;5.812;2022-09-29T03:07:06;6.80;99.90
52849;DHT22;38714;53.180;5.812;2022-09-29T03:09:31;6.80;99.90
52849;DHT22;38714;53.180;5.812;2022-09-29T03:11:57;6.80;99.90
52849;DHT22;38714;53.180;5.812;2022-09-29T03:14:23;6.80;99.90
52849;DHT22;38714;53.180;5.812;2022-09-29T03:16:49;6.80;99.90
52849;DHT22;38714;53.180;5.812;2022-09-29T03:19:14;6.80;99.90
52849;DHT22;38714;53.180;5.812;2022-09-29T03:21:40;6.80;99.90
52849;DHT22;38714;53.180;5.812;2022-09-29T03:24:05;6.80;99.90
52849;DHT22;38714;53.180;5.812;2022-09-29T03:26:31;6.70;99.90
52849;DHT22;38714;53.180;5.812;2022-09-29T03:28:57;6.80;99.90
52849;DHT22;38714;53.180;5.812;2022-09-29T03:31:22;6.70;99.90
52849;DHT22;38714;53.180;5.812;2022-09-29T03:33:48;6.80;99.90
52849;DHT22;38714;53.180;5.812;2022-09-29T03:36:13;6.70;99.90
52849;DHT22;38714;53.180;5.812;2022-09-29T03:38:39;6.70;99.90
52849;DHT22;38714;53.180;5.812;2022-09-29T03:41:05;6.80;99.90
52849;DHT22;38714;53.180;5.812;2022-09-29T03:43:31;6.70;99.90
52849;DHT22;38714;53.180;5.812;2022-09-29T03:45:56;6.70;99.90
52849;DHT22;38714;53.180;5.812;2022-09-29T03:48:22;6.70;99.90
52849;DHT22;38714;53.180;5.812;2022-09-29T03:50:48;6.70;99.90
52849;DHT22;38714;53.180;5.812;2022-09-29T03:53:14;6.60;99.90
52849;DHT22;38714;53.180;5.812;2022-09-29T03:55:40;6.60;99.90
52849;DHT22;38714;53.180;5.812;2022-09-29T03:58:09;6.60;99.90
52849;DHT22;38714;53.180;5.812;2022-09-29T04:00:35;6.60;99.90
52849;DHT22;38714;53.180;5.812;2022-09-29T04:03:00;6.60;99.90
52849;DHT22;38714;53.180;5.812;2022-09-29T04:05:27;6.70;99.90
52849;DHT22;38714;53.180;5.812;2022-09-29T04:07:53;6.70;99.90
52849;DHT22;38714;53.180;5.812;2022-09-29T04:10:18;6.70;99.90
52849;DHT22;38714;53.180;5.812;2022-09-29T04:12:44;6.70;99.90
52849;DHT22;38714;53.180;5.812;2022-09-29T04:15:09;6.70;99.90
52849;DHT22;38714;53.180;5.812;2022-09-29T04:17:35;6.80;99.90
52849;DHT22;38714;53.180;5.812;2022-09-29T04:20:00;6.70;99.90
52849;DHT22;38714;53.180;5.812;2022-09-29T04:22:26;6.80;99.90
52849;DHT22;38714;53.180;5.812;2022-09-29T04:24:52;6.70;99.90
52849;DHT22;38714;53.180;5.812;2022-09-29T04:27:18;6.70;99.90
52849;DHT22;38714;53.180;5.812;2022-09-29T04:29:43;6.70;99.90
52849;DHT22;38714;53.180;5.812;2022-09-29T04:32:09;6.70;99.90
52849;DHT22;38714;53.180;5.812;2022-09-29T04:34:35;6.70;99.90
52849;DHT22;38714;53.180;5.812;2022-09-29T04:37:00;6.70;99.90
52849;DHT22;38714;53.180;5.812;2022-09-29T04:39:29;6.70;99.90
52849;DHT22;38714;53.180;5.812;2022-09-29T04:41:54;6.70;99.90
52849;DHT22;38714;53.180;5.812;2022-09-29T04:44:20;6.60;99.90
52849;DHT22;38714;53.180;5.812;2022-09-29T04:46:50;6.70;99.90
52849;DHT22;38714;53.180;5.812;2022-09-29T04:49:16;6.70;99.90
52849;DHT22;38714;53.180;5.812;2022-09-29T04:51:42;6.70;99.90
52849;DHT22;38714;53.180;5.812;2022-09-29T04:54:07;6.70;99.90
52849;DHT22;38714;53.180;5.812;2022-09-29T04:56:33;6.70;99.90
52849;DHT22;38714;53.180;5.812;2022-09-29T04:58:58;6.70;99.90
52849;DHT22;38714;53.180;5.812;2022-09-29T05:01:24;6.60;99.90
52849;DHT22;38714;53.180;5.812;2022-09-29T05:03:49;6.70;99.90
52849;DHT22;38714;53.180;5.812;2022-09-29T05:06:15;6.70;99.90
52849;DHT22;38714;53.180;5.812;2022-09-29T05:08:41;6.70;99.90
52849;DHT22;38714;53.180;5.812;2022-09-29T05:11:07;6.70;99.90
52849;DHT22;38714;53.180;5.812;2022-09-29T05:13:33;6.70;99.90
52849;DHT22;38714;53.180;5.812;2022-09-29T05:15:58;6.70;99.90
52849;DHT22;38714;53.180;5.812;2022-09-29T05:18:24;6.70;99.90
52849;DHT22;38714;53.180;5.812;2022-09-29T05:20:50;6.70;99.90
52849;DHT22;38714;53.180;5.812;2022-09-29T05:23:15;6.70;99.90
52849;DHT22;38714;53.180;5.812;2022-09-29T05:25:41;6.70;99.90
52849;DHT22;38714;53.180;5.812;2022-09-29T05:28:08;6.70;99.90
52849;DHT22;38714;53.180;5.812;2022-09-29T05:30:35;6.70;99.90
52849;DHT22;38714;53.180;5.812;2022-09-29T05:33:00;6.70;99.90
52849;DHT22;38714;53.180;5.812;2022-09-29T05:35:26;6.70;99.90
52849;DHT22;38714;53.180;5.812;2022-09-29T05:37:51;6.70;99.90
52849;DHT22;38714;53.180;5.812;2022-09-29T05:40:17;6.70;99.90
52849;DHT22;38714;53.180;5.812;2022-09-29T05:42:44;6.70;99.90
52849;DHT22;38714;53.180;5.812;2022-09-29T05:45:09;6.70;99.90
52849;DHT22;38714;53.180;5.812;2022-09-29T05:47:39;6.70;99.90
52849;DHT22;38714;53.180;5.812;2022-09-29T05:50:05;6.70;99.90
52849;DHT22;38714;53.180;5.812;2022-09-29T05:52:31;6.70;99.90
52849;DHT22;38714;53.180;5.812;2022-09-29T05:54:56;6.70;99.90
52849;DHT22;38714;53.180;5.812;2022-09-29T05:57:22;6.70;99.90
52849;DHT22;38714;53.180;5.812;2022-09-29T05:59:47;6.80;99.90
52849;DHT22;38714;53.180;5.812;2022-09-29T06:02:13;6.70;99.90
52849;DHT22;38714;53.180;5.812;2022-09-29T06:04:39;6.70;99.90
52849;DHT22;38714;53.180;5.812;2022-09-29T06:07:04;6.70;99.90
52849;DHT22;38714;53.180;5.812;2022-09-29T06:09:31;6.70;99.90
52849;DHT22;38714;53.180;5.812;2022-09-29T06:11:57;6.70;99.90
52849;DHT22;38714;53.180;5.812;2022-09-29T06:14:22;6.70;99.90
52849;DHT22;38714;53.180;5.812;2022-09-29T06:16:48;6.70;99.90
52849;DHT22;38714;53.180;5.812;2022-09-29T06:19:14;6.70;99.90
52849;DHT22;38714;53.180;5.812;2022-09-29T06:21:39;6.70;99.90
52849;DHT22;38714;53.180;5.812;2022-09-29T06:24:05;6.70;99.90
52849;DHT22;38714;53.180;5.812;2022-09-29T06:26:31;6.70;99.90
52849;DHT22;38714;53.180;5.812;2022-09-29T06:28:57;6.70;99.90
52849;DHT22;38714;53.180;5.812;2022-09-29T06:31:24;6.60;99.90
52849;DHT22;38714;53.180;5.812;2022-09-29T06:33:50;6.60;99.90
52849;DHT22;38714;53.180;5.812;2022-09-29T06:36:16;6.60;99.90
52849;DHT22;38714;53.180;5.812;2022-09-29T06:39:02;6.70;99.90
52849;DHT22;38714;53.180;5.812;2022-09-29T06:41:28;6.70;99.90
52849;DHT22;38714;53.180;5.812;2022-09-29T06:43:54;6.70;99.90
52849;DHT22;38714;53.180;5.812;2022-09-29T06:46:20;6.70;99.90
52849;DHT22;38714;53.180;5.812;2022-09-29T06:48:46;6.70;99.90
52849;DHT22;38714;53.180;5.812;2022-09-29T06:51:12;6.80;99.90
52849;DHT22;38714;53.180;5.812;2022-09-29T06:53:39;6.80;99.90
52849;DHT22;38714;53.180;5.812;2022-09-29T06:56:05;6.80;99.90
52849;DHT22;38714;53.180;5.812;2022-09-29T06:58:30;6.90;99.90
52849;DHT22;38714;53.180;5.812;2022-09-29T07:00:58;6.90;99.90
52849;DHT22;38714;53.180;5.812;2022-09-29T07:03:24;6.90;99.90
52849;DHT22;38714;53.180;5.812;2022-09-29T07:05:49;7.00;99.90
52849;DHT22;38714;53.180;5.812;2022-09-29T07:08:15;7.00;99.90
52849;DHT22;38714;53.180;5.812;2022-09-29T07:10:40;7.10;99.90
52849;DHT22;38714;53.180;5.812;2022-09-29T07:13:06;7.10;99.90
52849;DHT22;38714;53.180;5.812;2022-09-29T07:15:33;7.10;99.90
52849;DHT22;38714;53.180;5.812;2022-09-29T07:17:59;7.20;99.90
52849;DHT22;38714;53.180;5.812;2022-09-29T07:20:26;7.20;99.90
52849;DHT22;38714;53.180;5.812;2022-09-29T07:22:52;7.20;99.90
52849;DHT22;38714;53.180;5.812;2022-09-29T07:25:18;7.30;99.90
52849;DHT22;38714;53.180;5.812;2022-09-29T07:27:43;7.30;99.90
52849;DHT22;38714;53.180;5.812;2022-09-29T07:30:09;7.40;99.90
52849;DHT22;38714;53.180;5.812;2022-09-29T07:32:34;7.50;99.90
52849;DHT22;38714;53.180;5.812;2022-09-29T07:35:00;7.60;99.90
52849;DHT22;38714;53.180;5.812;2022-09-29T07:37:26;7.60;99.90
52849;DHT22;38714;53.180;5.812;2022-09-29T07:39:52;7.60;99.90
52849;DHT22;38714;53.180;5.812;2022-09-29T07:42:18;7.70;99.90
52849;DHT22;38714;53.180;5.812;2022-09-29T07:44:45;7.70;99.90
52849;DHT22;38714;53.180;5.812;2022-09-29T07:47:11;7.80;99.90
52849;DHT22;38714;53.180;5.812;2022-09-29T07:49:37;7.90;99.90
52849;DHT22;38714;53.180;5.812;2022-09-29T07:52:04;7.90;99.90
52849;DHT22;38714;53.180;5.812;2022-09-29T07:54:29;7.90;99.90
52849;DHT22;38714;53.180;5.812;2022-09-29T07:56:55;7.90;99.90
52849;DHT22;38714;53.180;5.812;2022-09-29T07:59:21;8.00;99.90
52849;DHT22;38714;53.180;5.812;2022-09-29T08:01:47;8.10;99.90
52849;DHT22;38714;53.180;5.812;2022-09-29T08:04:12;8.10;99.90
52849;DHT22;38714;53.180;5.812;2022-09-29T08:06:38;8.20;99.90
52849;DHT22;38714;53.180;5.812;2022-09-29T08:09:05;8.30;99.90
52849;DHT22;38714;53.180;5.812;2022-09-29T08:11:30;8.30;99.90
52849;DHT22;38714;53.180;5.812;2022-09-29T08:13:56;8.30;99.90
52849;DHT22;38714;53.180;5.812;2022-09-29T08:16:22;8.50;99.90
52849;DHT22;38714;53.180;5.812;2022-09-29T08:18:48;8.50;99.90
52849;DHT22;38714;53.180;5.812;2022-09-29T08:21:14;8.50;99.90
52849;DHT22;38714;53.180;5.812;2022-09-29T08:23:40;8.60;99.90
52849;DHT22;38714;53.180;5.812;2022-09-29T08:26:07;8.70;99.90
52849;DHT22;38714;53.180;5.812;2022-09-29T08:28:33;8.80;99.90
52849;DHT22;38714;53.180;5.812;2022-09-29T08:31:03;8.80;99.90
52849;DHT22;38714;53.180;5.812;2022-09-29T08:33:28;8.80;99.90
52849;DHT22;38714;53.180;5.812;2022-09-29T08:35:55;8.90;99.90
52849;DHT22;38714;53.180;5.812;2022-09-29T08:38:21;9.00;99.90
52849;DHT22;38714;53.180;5.812;2022-09-29T08:40:47;9.00;99.90
52849;DHT22;38714;53.180;5.812;2022-09-29T08:43:17;9.10;99.90
52849;DHT22;38714;53.180;5.812;2022-09-29T08:45:49;9.20;99.90
52849;DHT22;38714;53.180;5.812;2022-09-29T08:48:20;9.30;99.90
52849;DHT22;38714;53.180;5.812;2022-09-29T08:50:47;9.30;99.90
52849;DHT22;38714;53.180;5.812;2022-09-29T08:53:14;9.40;99.90
52849;DHT22;38714;53.180;5.812;2022-09-29T08:55:42;9.50;99.90
52849;DHT22;38714;53.180;5.812;2022-09-29T08:58:11;9.50;99.90
52849;DHT22;38714;53.180;5.812;2022-09-29T09:00:50;9.60;99.90
52849;DHT22;38714;53.180;5.812;2022-09-29T09:03:28;9.70;99.90
52849;DHT22;38714;53.180;5.812;2022-09-29T09:11:20;9.90;99.90
52849;DHT22;38714;53.180;5.812;2022-09-29T09:14:02;9.90;99.90
52849;DHT22;38714;53.180;5.812;2022-09-29T09:16:48;10.00;99.90
52849;DHT22;38714;53.180;5.812;2022-09-29T09:21:58;10.10;99.90
52849;DHT22;38714;53.180;5.812;2022-09-29T09:24:31;10.20;99.90
52849;DHT22;38714;53.180;5.812;2022-09-29T09:26:57;10.20;99.90
52849;DHT22;38714;53.180;5.812;2022-09-29T09:34:41;10.40;99.90
52849;DHT22;38714;53.180;5.812;2022-09-29T09:37:13;10.40;99.90
52849;DHT22;38714;53.180;5.812;2022-09-29T09:42:20;10.50;99.90
52849;DHT22;38714;53.180;5.812;2022-09-29T09:44:48;10.50;99.90
52849;DHT22;38714;53.180;5.812;2022-09-29T09:47:30;10.60;99.90
52849;DHT22;38714;53.180;5.812;2022-09-29T09:50:11;10.70;99.90
52849;DHT22;38714;53.180;5.812;2022-09-29T09:52:40;10.80;99.90
52849;DHT22;38714;53.180;5.812;2022-09-29T09:55:14;10.80;99.90
52849;DHT22;38714;53.180;5.812;2022-09-29T09:57:46;10.90;99.90
52849;DHT22;38714;53.180;5.812;2022-09-29T10:02:45;11.00;99.90
52849;DHT22;38714;53.180;5.812;2022-09-29T10:05:12;11.00;99.90
52849;DHT22;38714;53.180;5.812;2022-09-29T10:07:39;11.00;99.90
52849;DHT22;38714;53.180;5.812;2022-09-29T10:10:06;11.00;99.90
52849;DHT22;38714;53.180;5.812;2022-09-29T10:12:37;11.10;99.90
52849;DHT22;38714;53.180;5.812;2022-09-29T10:15:04;11.20;99.90
52849;DHT22;38714;53.180;5.812;2022-09-29T10:17:36;11.20;99.90
52849;DHT22;38714;53.180;5.812;2022-09-29T10:20:04;11.20;99.90
52849;DHT22;38714;53.180;5.812;2022-09-29T10:22:30;11.20;99.90
52849;DHT22;38714;53.180;5.812;2022-09-29T10:25:18;11.20;99.90
52849;DHT22;38714;53.180;5.812;2022-09-29T10:27:53;11.30;99.90
52849;DHT22;38714;53.180;5.812;2022-09-29T10:30:30;11.30;99.90
52849;DHT22;38714;53.180;5.812;2022-09-29T10:32:58;11.30;99.90
52849;DHT22;38714;53.180;5.812;2022-09-29T10:35:30;11.30;99.90
52849;DHT22;38714;53.180;5.812;2022-09-29T10:38:00;11.40;99.90
52849;DHT22;38714;53.180;5.812;2022-09-29T10:40:27;11.50;99.90
52849;DHT22;38714;53.180;5.812;2022-09-29T10:42:52;11.50;99.90
52849;DHT22;38714;53.180;5.812;2022-09-29T10:45:19;11.60;99.90
52849;DHT22;38714;53.180;5.812;2022-09-29T10:52:53;11.80;99.90
52849;DHT22;38714;53.180;5.812;2022-09-29T10:55:20;11.80;99.90
52849;DHT22;38714;53.180;5.812;2022-09-29T10:57:46;11.90;99.90
52849;DHT22;38714;53.180;5.812;2022-09-29T11:03:04;12.00;99.90
52849;DHT22;38714;53.180;5.812;2022-09-29T11:05:34;12.10;99.90
52849;DHT22;38714;53.180;5.812;2022-09-29T11:08:01;12.10;99.90
52849;DHT22;38714;53.180;5.812;2022-09-29T11:10:36;12.10;99.90
52849;DHT22;38714;53.180;5.812;2022-09-29T11:13:45;12.20;99.90
52849;DHT22;38714;53.180;5.812;2022-09-29T11:16:04;12.20;99.90
52849;DHT22;38714;53.180;5.812;2022-09-29T11:18:33;12.30;99.90
52849;DHT22;38714;53.180;5.812;2022-09-29T11:23:36;12.40;99.90
52849;DHT22;38714;53.180;5.812;2022-09-29T11:29:14;12.50;99.90
52849;DHT22;38714;53.180;5.812;2022-09-29T11:31:40;12.50;99.90
52849;DHT22;38714;53.180;5.812;2022-09-29T11:36:43;12.50;99.90
52849;DHT22;38714;53.180;5.812;2022-09-29T11:39:29;12.50;99.90
52849;DHT22;38714;53.180;5.812;2022-09-29T11:42:12;12.50;99.90
52849;DHT22;38714;53.180;5.812;2022-09-29T11:44:51;12.50;99.90
52849;DHT22;38714;53.180;5.812;2022-09-29T11:47:23;12.50;99.90
52849;DHT22;38714;53.180;5.812;2022-09-29T11:50:02;12.60;99.90
52849;DHT22;38714;53.180;5.812;2022-09-29T11:58:17;12.50;99.90
52849;DHT22;38714;53.180;5.812;2022-09-29T12:11:28;12.60;99.90
52849;DHT22;38714;53.180;5.812;2022-09-29T12:16:31;12.60;99.90
52849;DHT22;38714;53.180;5.812;2022-09-29T12:19:03;12.60;99.90
52849;DHT22;38714;53.180;5.812;2022-09-29T12:21:50;12.60;99.90
52849;DHT22;38714;53.180;5.812;2022-09-29T12:24:17;12.70;99.90
52849;DHT22;38714;53.180;5.812;2022-09-29T12:26:43;12.70;99.90
52849;DHT22;38714;53.180;5.812;2022-09-29T12:29:21;12.70;99.90
52849;DHT22;38714;53.180;5.812;2022-09-29T12:31:50;12.80;99.90
52849;DHT22;38714;53.180;5.812;2022-09-29T12:34:19;12.80;99.90
52849;DHT22;38714;53.180;5.812;2022-09-29T12:36:46;12.90;99.90
52849;DHT22;38714;53.180;5.812;2022-09-29T12:39:23;12.90;99.90
52849;DHT22;38714;53.180;5.812;2022-09-29T12:42:01;13.00;99.90
52849;DHT22;38714;53.180;5.812;2022-09-29T12:44:32;13.10;99.90
52849;DHT22;38714;53.180;5.812;2022-09-29T12:47:11;13.10;99.90
52849;DHT22;38714;53.180;5.812;2022-09-29T12:49:58;13.20;99.90
52849;DHT22;38714;53.180;5.812;2022-09-29T12:52:28;13.20;99.90
52849;DHT22;38714;53.180;5.812;2022-09-29T12:54:56;13.20;99.90
52849;DHT22;38714;53.180;5.812;2022-09-29T12:57:25;13.20;99.90
52849;DHT22;38714;53.180;5.812;2022-09-29T13:05:10;13.20;99.90
52849;DHT22;38714;53.180;5.812;2022-09-29T13:07:45;13.20;99.90
52849;DHT22;38714;53.180;5.812;2022-09-29T13:26:00;13.40;99.90
52849;DHT22;38714;53.180;5.812;2022-09-29T13:28:42;13.40;99.90
52849;DHT22;38714;53.180;5.812;2022-09-29T13:31:10;13.40;99.90
52849;DHT22;38714;53.180;5.812;2022-09-29T13:33:36;13.30;99.90
52849;DHT22;38714;53.180;5.812;2022-09-29T13:36:02;13.30;99.90
52849;DHT22;38714;53.180;5.812;2022-09-29T13:38:29;13.30;99.90
52849;DHT22;38714;53.180;5.812;2022-09-29T13:41:15;13.30;99.90
52849;DHT22;38714;53.180;5.812;2022-09-29T13:46:47;13.20;99.90
52849;DHT22;38714;53.180;5.812;2022-09-29T13:54:12;13.30;99.90
52849;DHT22;38714;53.180;5.812;2022-09-29T13:56:38;13.30;99.90
52849;DHT22;38714;53.180;5.812;2022-09-29T13:59:10;13.40;99.90
52849;DHT22;38714;53.180;5.812;2022-09-29T14:01:37;13.40;99.90
52849;DHT22;38714;53.180;5.812;2022-09-29T14:06:48;13.50;99.90
52849;DHT22;38714;53.180;5.812;2022-09-29T14:09:17;13.50;99.90
52849;DHT22;38714;53.180;5.812;2022-09-29T14:11:50;13.60;99.90
52849;DHT22;38714;53.180;5.812;2022-09-29T14:16:53;13.60;99.90
52849;DHT22;38714;53.180;5.812;2022-09-29T14:22:47;13.70;99.90
52849;DHT22;38714;53.180;5.812;2022-09-29T14:24:51;13.70;99.90
52849;DHT22;38714;53.180;5.812;2022-09-29T14:29:43;13.70;99.90
52849;DHT22;38714;53.180;5.812;2022-09-29T14:32:17;13.80;99.90
52849;DHT22;38714;53.180;5.812;2022-09-29T14:34:44;13.70;99.90
52849;DHT22;38714;53.180;5.812;2022-09-29T14:37:15;13.70;99.90
52849;DHT22;38714;53.180;5.812;2022-09-29T14:39:42;13.70;99.90
52849;DHT22;38714;53.180;5.812;2022-09-29T14:42:28;13.70;99.90
52849;DHT22;38714;53.180;5.812;2022-09-29T14:44:54;13.70;99.90
52849;DHT22;38714;53.180;5.812;2022-09-29T14:47:45;13.80;99.90
52849;DHT22;38714;53.180;5.812;2022-09-29T14:50:39;13.70;99.90
52849;DHT22;38714;53.180;5.812;2022-09-29T14:56:07;13.80;99.90
52849;DHT22;38714;53.180;5.812;2022-09-29T14:58:42;13.80;99.90
52849;DHT22;38714;53.180;5.812;2022-09-29T15:01:14;13.80;99.90
52849;DHT22;38714;53.180;5.812;2022-09-29T15:06:14;13.80;99.90
52849;DHT22;38714;53.180;5.812;2022-09-29T15:08:40;13.80;99.90
52849;DHT22;38714;53.180;5.812;2022-09-29T15:13:52;13.80;99.90
52849;DHT22;38714;53.180;5.812;2022-09-29T15:16:41;13.80;99.90
52849;DHT22;38714;53.180;5.812;2022-09-29T15:22:31;13.80;99.90
52849;DHT22;38714;53.180;5.812;2022-09-29T15:27:14;13.80;99.90
52849;DHT22;38714;53.180;5.812;2022-09-29T15:29:43;13.80;99.90
52849;DHT22;38714;53.180;5.812;2022-09-29T15:32:30;13.80;99.90
52849;DHT22;38714;53.180;5.812;2022-09-29T15:35:05;13.80;99.90
52849;DHT22;38714;53.180;5.812;2022-09-29T15:40:13;13.80;99.90
52849;DHT22;38714;53.180;5.812;2022-09-29T15:42:38;13.80;99.90
52849;DHT22;38714;53.180;5.812;2022-09-29T15:45:07;13.80;99.90
52849;DHT22;38714;53.180;5.812;2022-09-29T15:47:35;13.80;99.90
52849;DHT22;38714;53.180;5.812;2022-09-29T15:50:03;13.70;99.90
52849;DHT22;38714;53.180;5.812;2022-09-29T15:52:29;13.80;99.90
52849;DHT22;38714;53.180;5.812;2022-09-29T15:54:56;13.70;99.90
52849;DHT22;38714;53.180;5.812;2022-09-29T15:57:40;13.70;99.90
52849;DHT22;38714;53.180;5.812;2022-09-29T16:05:18;13.70;99.90
52849;DHT22;38714;53.180;5.812;2022-09-29T16:10:15;13.60;99.90
52849;DHT22;38714;53.180;5.812;2022-09-29T16:12:54;13.60;99.90
52849;DHT22;38714;53.180;5.812;2022-09-29T16:17:55;13.50;99.90
52849;DHT22;38714;53.180;5.812;2022-09-29T16:20:25;13.40;99.90
52849;DHT22;38714;53.180;5.812;2022-09-29T16:22:52;13.40;99.90
52849;DHT22;38714;53.180;5.812;2022-09-29T16:25:25;13.40;99.90
52849;DHT22;38714;53.180;5.812;2022-09-29T16:30:19;13.30;99.90
52849;DHT22;38714;53.180;5.812;2022-09-29T16:32:45;13.30;99.90
52849;DHT22;38714;53.180;5.812;2022-09-29T16:38:15;13.20;99.90
52849;DHT22;38714;53.180;5.812;2022-09-29T16:40:42;13.20;99.90
52849;DHT22;38714;53.180;5.812;2022-09-29T16:43:25;13.20;99.90
52849;DHT22;38714;53.180;5.812;2022-09-29T16:45:52;13.20;99.90
52849;DHT22;38714;53.180;5.812;2022-09-29T16:48:19;13.10;99.90
52849;DHT22;38714;53.180;5.812;2022-09-29T16:50:46;13.10;99.90
52849;DHT22;38714;53.180;5.812;2022-09-29T16:53:23;13.10;99.90
52849;DHT22;38714;53.180;5.812;2022-09-29T16:55:59;13.00;99.90
52849;DHT22;38714;53.180;5.812;2022-09-29T16:58:25;13.00;99.90
52849;DHT22;38714;53.180;5.812;2022-09-29T17:00:51;13.00;99.90
52849;DHT22;38714;53.180;5.812;2022-09-29T17:03:16;12.90;99.90
52849;DHT22;38714;53.180;5.812;2022-09-29T17:05:42;12.90;99.90
52849;DHT22;38714;53.180;5.812;2022-09-29T17:08:17;12.90;99.90
52849;DHT22;38714;53.180;5.812;2022-09-29T17:10:42;12.80;99.90
52849;DHT22;38714;53.180;5.812;2022-09-29T17:13:10;12.80;99.90
52849;DHT22;38714;53.180;5.812;2022-09-29T17:15:37;12.80;99.90
52849;DHT22;38714;53.180;5.812;2022-09-29T17:18:03;12.70;99.90
52849;DHT22;38714;53.180;5.812;2022-09-29T17:20:29;12.70;99.90
52849;DHT22;38714;53.180;5.812;2022-09-29T17:22:54;12.70;99.90
52849;DHT22;38714;53.180;5.812;2022-09-29T17:25:20;12.70;99.90
52849;DHT22;38714;53.180;5.812;2022-09-29T17:27:46;12.70;99.90
52849;DHT22;38714;53.180;5.812;2022-09-29T17:30:30;12.70;99.90
52849;DHT22;38714;53.180;5.812;2022-09-29T17:32:56;12.70;99.90
52849;DHT22;38714;53.180;5.812;2022-09-29T17:35:34;12.60;99.90
52849;DHT22;38714;53.180;5.812;2022-09-29T17:38:00;12.60;99.90
52849;DHT22;38714;53.180;5.812;2022-09-29T17:40:31;12.50;99.90
52849;DHT22;38714;53.180;5.812;2022-09-29T17:42:58;12.50;99.90
52849;DHT22;38714;53.180;5.812;2022-09-29T17:45:24;12.50;99.90
52849;DHT22;38714;53.180;5.812;2022-09-29T17:47:50;12.50;99.90
52849;DHT22;38714;53.180;5.812;2022-09-29T17:50:17;12.50;99.90
52849;DHT22;38714;53.180;5.812;2022-09-29T17:52:43;12.50;99.90
52849;DHT22;38714;53.180;5.812;2022-09-29T17:55:08;12.50;99.90
52849;DHT22;38714;53.180;5.812;2022-09-29T17:57:36;12.40;99.90
52849;DHT22;38714;53.180;5.812;2022-09-29T18:00:02;12.40;99.90
52849;DHT22;38714;53.180;5.812;2022-09-29T18:02:28;12.40;99.90
52849;DHT22;38714;53.180;5.812;2022-09-29T18:04:53;12.30;99.90
52849;DHT22;38714;53.180;5.812;2022-09-29T18:07:19;12.30;99.90
52849;DHT22;38714;53.180;5.812;2022-09-29T18:09:44;12.30;99.90
52849;DHT22;38714;53.180;5.812;2022-09-29T18:12:11;12.30;99.90
52849;DHT22;38714;53.180;5.812;2022-09-29T18:14:36;12.30;99.90
52849;DHT22;38714;53.180;5.812;2022-09-29T18:17:02;12.30;99.90
52849;DHT22;38714;53.180;5.812;2022-09-29T18:19:30;12.30;99.90
52849;DHT22;38714;53.180;5.812;2022-09-29T18:21:56;12.30;99.90
52849;DHT22;38714;53.180;5.812;2022-09-29T18:24:22;12.30;99.90
52849;DHT22;38714;53.180;5.812;2022-09-29T18:26:47;12.30;99.90